sensor_id;sensor_type;location;lat;lon;timestamp;pressure;altitude;pressure_sealevel;temperature;humidity
31761;BME280;18335;51.486;7.562;2023-02-01T00:01:54;100457.94;;;5.24;100.00
31761;BME280;18335;51.486;7.562;2023-02-01T00:04:22;100453.25;;;5.37;100.00
31761;BME280;18335;51.486;7.562;2023-02-01T00:06:48;100463.56;;;5.32;100.00
31761;BME280;18335;51.486;7.562;2023-02-01T00:09:15;100454.91;;;5.49;100.00
31761;BME280;18335;51.486;7.562;2023-02-01T00:11:42;100458.13;;;5.43;100.00
31761;BME280;18335;51.486;7.562;2023-02-01T00:14:10;100459.13;;;5.42;100.00
31761;BME280;18335;51.486;7.562;2023-02-01T00:16:37;100461.41;;;5.47;100.00
31761;BME280;18335;51.486;7.562;2023-02-01T00:19:06;100467.69;;;5.47;100.00
31761;BME280;18335;51.486;7.562;2023-02-01T00:21:33;100454.56;;;5.43;100.00
31761;BME280;18335;51.486;7.562;2023-02-01T00:24:00;100462.84;;;5.62;100.00
31761;BME280;18335;51.486;7.562;2023-02-01T00:26:31;100458.09;;;5.54;100.00
31761;BME280;18335;51.486;7.562;2023-02-01T00:28:58;100458.31;;;5.63;100.00
31761;BME280;18335;51.486;7.562;2023-02-01T00:31:27;100470.34;;;5.58;100.00
31761;BME280;18335;51.486;7.562;2023-02-01T00:33:54;100463.75;;;5.51;100.00
31761;BME280;18335;51.486;7.562;2023-02-01T00:36:20;100463.16;;;5.48;100.00
31761;BME280;18335;51.486;7.562;2023-02-01T00:38:47;100458.97;;;5.44;100.00
31761;BME280;18335;51.486;7.562;2023-02-01T00:41:15;100448.66;;;5.38;100.00
31761;BME280;18335;51.486;7.562;2023-02-01T00:43:43;100454.56;;;5.43;100.00
31761;BME280;18335;51.486;7.562;2023-02-01T00:46:11;100441.03;;;5.43;100.00
31761;BME280;18335;51.486;7.562;2023-02-01T00:48:40;100436.75;;;5.29;100.00
31761;BME280;18335;51.486;7.562;2023-02-01T00:51:09;100421.59;;;5.38;100.00
31761;BME280;18335;51.486;7.562;2023-02-01T00:53:36;100433.69;;;5.23;100.00
31761;BME280;18335;51.486;7.562;2023-02-01T00:56:04;100433.19;;;5.29;100.00
31761;BME280;18335;51.486;7.562;2023-02-01T00:58:31;100442.28;;;5.39;100.00
31761;BME280;18335;51.486;7.562;2023-02-01T01:01:04;100443.41;;;5.36;100.00
31761;BME280;18335;51.486;7.562;2023-02-01T01:03:32;100437.66;;;5.19;100.00
31761;BME280;18335;51.486;7.562;2023-02-01T01:06:03;100439.09;;;5.34;100.00
31761;BME280;18335;51.486;7.562;2023-02-01T01:08:30;100441.16;;;5.41;100.00
31761;BME280;18335;51.486;7.562;2023-02-01T01:10:57;100437.25;;;5.34;100.00
31761;BME280;18335;51.486;7.562;2023-02-01T01:13:24;100442.72;;;5.44;100.00
31761;BME280;18335;51.486;7.562;2023-02-01T01:15:50;100452.63;;;5.34;100.00
31761;BME280;18335;51.486;7.562;2023-02-01T01:18:18;100451.03;;;5.31;100.00
31761;BME280;18335;51.486;7.562;2023-02-01T01:20:44;100455.94;;;5.37;100.00
31761;BME280;18335;51.486;7.562;2023-02-01T01:23:13;100450.53;;;5.37;100.00
31761;BME280;18335;51.486;7.562;2023-02-01T01:25:39;100450.19;;;5.31;100.00
31761;BME280;18335;51.486;7.562;2023-02-01T01:28:07;100450.75;;;5.45;100.00
31761;BME280;18335;51.486;7.562;2023-02-01T01:30:34;100446.34;;;5.33;100.00
31761;BME280;18335;51.486;7.562;2023-02-01T01:33:02;100455.19;;;5.35;100.00
31761;BME280;18335;51.486;7.562;2023-02-01T01:35:29;100443.41;;;5.36;100.00
31761;BME280;18335;51.486;7.562;2023-02-01T01:37:56;100441.66;;;5.35;100.00
31761;BME280;18335;51.486;7.562;2023-02-01T01:40:25;100446.22;;;5.35;100.00
31761;BME280;18335;51.486;7.562;2023-02-01T01:42:52;100435.78;;;5.30;100.00
31761;BME280;18335;51.486;7.562;2023-02-01T01:45:24;100437.06;;;5.15;100.00
31761;BME280;18335;51.486;7.562;2023-02-01T01:47:53;100434.81;;;5.31;100.00
31761;BME280;18335;51.486;7.562;2023-02-01T01:50:24;100441.66;;;5.35;100.00
31761;BME280;18335;51.486;7.562;2023-02-01T01:52:52;100429.25;;;5.33;100.00
31761;BME280;18335;51.486;7.562;2023-02-01T01:55:22;100432.47;;;5.27;100.00
31761;BME280;18335;51.486;7.562;2023-02-01T01:57:54;100436.75;;;5.29;100.00
31761;BME280;18335;51.486;7.562;2023-02-01T02:00:22;100417.72;;;5.31;100.00
31761;BME280;18335;51.486;7.562;2023-02-01T02:02:55;100416.97;;;5.29;100.00
31761;BME280;18335;51.486;7.562;2023-02-01T02:05:23;100419.56;;;5.30;100.00
31761;BME280;18335;51.486;7.562;2023-02-01T02:07:53;100419.56;;;5.30;100.00
31761;BME280;18335;51.486;7.562;2023-02-01T02:10:20;100411.19;;;5.33;100.00
31761;BME280;18335;51.486;7.562;2023-02-01T02:13:08;100410.47;;;5.20;100.00
31761;BME280;18335;51.486;7.562;2023-02-01T02:15:40;100412.66;;;5.26;100.00
31761;BME280;18335;51.486;7.562;2023-02-01T02:18:15;100398.38;;;5.35;100.00
31761;BME280;18335;51.486;7.562;2023-02-01T02:20:56;100404.44;;;5.28;100.00
31761;BME280;18335;51.486;7.562;2023-02-01T02:23:47;100398.41;;;5.24;100.00
31761;BME280;18335;51.486;7.562;2023-02-01T02:26:25;100398.22;;;5.16;100.00
31761;BME280;18335;51.486;7.562;2023-02-01T02:29:19;100395.91;;;5.32;100.00
31761;BME280;18335;51.486;7.562;2023-02-01T02:32:32;100393.78;;;5.15;100.00
31761;BME280;18335;51.486;7.562;2023-02-01T02:35:06;100386.13;;;5.20;100.00
31761;BME280;18335;51.486;7.562;2023-02-01T02:37:40;100390.66;;;5.20;100.00
31761;BME280;18335;51.486;7.562;2023-02-01T02:40:15;100392.53;;;5.19;100.00
31761;BME280;18335;51.486;7.562;2023-02-01T02:42:51;100389.78;;;5.30;100.00
31761;BME280;18335;51.486;7.562;2023-02-01T02:45:44;100380.97;;;5.28;100.00
31761;BME280;18335;51.486;7.562;2023-02-01T02:48:35;100398.53;;;5.34;100.00
31761;BME280;18335;51.486;7.562;2023-02-01T02:51:08;100404.78;;;5.34;100.00
31761;BME280;18335;51.486;7.562;2023-02-01T02:53:59;100382.28;;;5.34;100.00
31761;BME280;18335;51.486;7.562;2023-02-01T02:56:47;100374.03;;;5.35;100.00
31761;BME280;18335;51.486;7.562;2023-02-01T02:59:34;100367.06;;;5.22;100.00
31761;BME280;18335;51.486;7.562;2023-02-01T03:02:19;100365.34;;;5.21;100.00
31761;BME280;18335;51.486;7.562;2023-02-01T03:05:05;100367.53;;;5.27;100.00
31761;BME280;18335;51.486;7.562;2023-02-01T03:07:52;100367.19;;;5.20;100.00
31761;BME280;18335;51.486;7.562;2023-02-01T03:10:26;100373.88;;;5.16;100.00
31761;BME280;18335;51.486;7.562;2023-02-01T03:12:55;100374.59;;;5.18;100.00
31761;BME280;18335;51.486;7.562;2023-02-01T03:15:33;100369.44;;;5.15;100.00
31761;BME280;18335;51.486;7.562;2023-02-01T03:18:06;100357.28;;;5.10;100.00
31761;BME280;18335;51.486;7.562;2023-02-01T03:20:36;100363.81;;;5.07;100.00
31761;BME280;18335;51.486;7.562;2023-02-01T03:23:06;100338.97;;;5.13;100.00
31761;BME280;18335;51.486;7.562;2023-02-01T03:25:34;100347.94;;;5.02;100.00
31761;BME280;18335;51.486;7.562;2023-02-01T03:28:03;100335.03;;;5.06;100.00
31761;BME280;18335;51.486;7.562;2023-02-01T03:30:34;100328.78;;;5.06;100.00
31761;BME280;18335;51.486;7.562;2023-02-01T03:33:05;100322.50;;;5.05;100.00
31761;BME280;18335;51.486;7.562;2023-02-01T03:35:44;100318.81;;;5.06;100.00
31761;BME280;18335;51.486;7.562;2023-02-01T03:38:20;100329.38;;;5.09;100.00
31761;BME280;18335;51.486;7.562;2023-02-01T03:40:52;100329.38;;;5.09;100.00
31761;BME280;18335;51.486;7.562;2023-02-01T03:43:21;100329.38;;;5.09;100.00
31761;BME280;18335;51.486;7.562;2023-02-01T03:45:53;100338.97;;;5.02;100.00
31761;BME280;18335;51.486;7.562;2023-02-01T03:48:23;100343.88;;;5.08;100.00
31761;BME280;18335;51.486;7.562;2023-02-01T03:50:54;100340.34;;;4.96;100.00
31761;BME280;18335;51.486;7.562;2023-02-01T03:53:25;100336.16;;;5.03;100.00
31761;BME280;18335;51.486;7.562;2023-02-01T03:55:54;100340.19;;;5.09;100.00
31761;BME280;18335;51.486;7.562;2023-02-01T03:58:23;100338.66;;;4.95;100.00
31761;BME280;18335;51.486;7.562;2023-02-01T04:00:51;100324.56;;;5.13;100.00
31761;BME280;18335;51.486;7.562;2023-02-01T04:03:19;100321.31;;;4.98;100.00
31761;BME280;18335;51.486;7.562;2023-02-01T04:05:47;100309.13;;;5.03;100.00
31761;BME280;18335;51.486;7.562;2023-02-01T04:08:14;100302.50;;;4.96;100.00
31761;BME280;18335;51.486;7.562;2023-02-01T04:10:42;100307.47;;;5.12;100.00
31761;BME280;18335;51.486;7.562;2023-02-01T04:13:09;100330.09;;;5.11;100.00
31761;BME280;18335;51.486;7.562;2023-02-01T04:15:36;100312.19;;;5.10;100.00
31761;BME280;18335;51.486;7.562;2023-02-01T04:18:03;100324.22;;;5.06;100.00
31761;BME280;18335;51.486;7.562;2023-02-01T04:20:30;100322.84;;;5.12;100.00
31761;BME280;18335;51.486;7.562;2023-02-01T04:22:57;100332.22;;;5.08;100.00
31761;BME280;18335;51.486;7.562;2023-02-01T04:25:24;100323.97;;;5.09;100.00
31761;BME280;18335;51.486;7.562;2023-02-01T04:27:52;100326.63;;;5.20;100.00
31761;BME280;18335;51.486;7.562;2023-02-01T04:30:19;100317.53;;;5.21;100.00
31761;BME280;18335;51.486;7.562;2023-02-01T04:32:45;100310.66;;;5.17;100.00
31761;BME280;18335;51.486;7.562;2023-02-01T04:35:12;100317.25;;;5.24;100.00
31761;BME280;18335;51.486;7.562;2023-02-01T04:37:39;100311.78;;;5.15;100.00
31761;BME280;18335;51.486;7.562;2023-02-01T04:40:07;100306.44;;;5.24;100.00
31761;BME280;18335;51.486;7.562;2023-02-01T04:42:33;100312.31;;;5.29;100.00
31761;BME280;18335;51.486;7.562;2023-02-01T04:45:02;100316.06;;;5.17;100.00
31761;BME280;18335;51.486;7.562;2023-02-01T04:47:29;100305.50;;;5.14;100.00
31761;BME280;18335;51.486;7.562;2023-02-01T04:49:55;100296.56;;;5.14;100.00
31761;BME280;18335;51.486;7.562;2023-02-01T04:52:22;100300.44;;;5.21;100.00
31761;BME280;18335;51.486;7.562;2023-02-01T04:54:49;100307.69;;;5.20;100.00
31761;BME280;18335;51.486;7.562;2023-02-01T04:57:15;100309.81;;;5.17;100.00
31761;BME280;18335;51.486;7.562;2023-02-01T04:59:42;100318.66;;;5.19;100.00
31761;BME280;18335;51.486;7.562;2023-02-01T05:02:10;100307.56;;;5.22;100.00
31761;BME280;18335;51.486;7.562;2023-02-01T05:04:37;100314.38;;;5.16;100.00
31761;BME280;18335;51.486;7.562;2023-02-01T05:07:04;100318.38;;;5.22;100.00
31761;BME280;18335;51.486;7.562;2023-02-01T05:09:30;100313.75;;;5.13;100.00
31761;BME280;18335;51.486;7.562;2023-02-01T05:11:57;100311.34;;;5.30;100.00
31761;BME280;18335;51.486;7.562;2023-02-01T05:14:42;100315.09;;;5.18;100.00
31761;BME280;18335;51.486;7.562;2023-02-01T05:17:10;100296.88;;;5.20;100.00
31761;BME280;18335;51.486;7.562;2023-02-01T05:19:36;100313.84;;;5.22;100.00
31761;BME280;18335;51.486;7.562;2023-02-01T05:22:03;100307.94;;;5.17;100.00
31761;BME280;18335;51.486;7.562;2023-02-01T05:24:30;100296.88;;;5.20;100.00
31761;BME280;18335;51.486;7.562;2023-02-01T05:26:57;100318.75;;;5.17;100.00
31761;BME280;18335;51.486;7.562;2023-02-01T05:29:23;100302.69;;;5.16;100.00
31761;BME280;18335;51.486;7.562;2023-02-01T05:31:50;100293.44;;;5.18;100.00
31761;BME280;18335;51.486;7.562;2023-02-01T05:34:18;100315.34;;;5.15;100.00
31761;BME280;18335;51.486;7.562;2023-02-01T05:36:45;100313.84;;;5.22;100.00
31761;BME280;18335;51.486;7.562;2023-02-01T05:39:12;100318.03;;;5.15;100.00
31761;BME280;18335;51.486;7.562;2023-02-01T05:41:38;100312.84;;;5.23;100.00
31761;BME280;18335;51.486;7.562;2023-02-01T05:44:05;100317.88;;;5.28;100.00
31761;BME280;18335;51.486;7.562;2023-02-01T05:46:33;100318.66;;;5.39;100.00
31761;BME280;18335;51.486;7.562;2023-02-01T05:48:59;100311.06;;;5.33;100.00
31761;BME280;18335;51.486;7.562;2023-02-01T05:51:27;100310.53;;;5.19;100.00
31761;BME280;18335;51.486;7.562;2023-02-01T05:53:54;100322.22;;;5.19;100.00
31761;BME280;18335;51.486;7.562;2023-02-01T05:56:21;100310.88;;;5.25;100.00
31761;BME280;18335;51.486;7.562;2023-02-01T05:58:48;100305.50;;;5.14;100.00
31761;BME280;18335;51.486;7.562;2023-02-01T06:01:14;100299.31;;;5.23;100.00
31761;BME280;18335;51.486;7.562;2023-02-01T06:03:41;100304.72;;;5.23;100.00
31761;BME280;18335;51.486;7.562;2023-02-01T06:06:08;100297.88;;;5.19;100.00
31761;BME280;18335;51.486;7.562;2023-02-01T06:08:36;100272.94;;;5.16;100.00
31761;BME280;18335;51.486;7.562;2023-02-01T06:11:05;100290.47;;;5.21;100.00
31761;BME280;18335;51.486;7.562;2023-02-01T06:13:33;100299.81;;;5.17;100.00
31761;BME280;18335;51.486;7.562;2023-02-01T06:16:00;100303.06;;;5.11;100.00
31761;BME280;18335;51.486;7.562;2023-02-01T06:18:27;100309.41;;;5.21;100.00
31761;BME280;18335;51.486;7.562;2023-02-01T06:20:55;100304.00;;;5.21;100.00
31761;BME280;18335;51.486;7.562;2023-02-01T06:23:23;100293.19;;;5.21;100.00
31761;BME280;18335;51.486;7.562;2023-02-01T06:25:52;100293.19;;;5.21;100.00
31761;BME280;18335;51.486;7.562;2023-02-01T06:28:19;100294.41;;;5.17;100.00
31761;BME280;18335;51.486;7.562;2023-02-01T06:30:46;100299.56;;;5.20;100.00
31761;BME280;18335;51.486;7.562;2023-02-01T06:33:13;100311.00;;;5.24;100.00
31761;BME280;18335;51.486;7.562;2023-02-01T06:35:41;100320.94;;;5.23;100.00
31761;BME280;18335;51.486;7.562;2023-02-01T06:38:09;100310.34;;;5.11;100.00
31761;BME280;18335;51.486;7.562;2023-02-01T06:40:36;100308.34;;;5.13;100.00
31761;BME280;18335;51.486;7.562;2023-02-01T06:43:04;100308.69;;;5.19;100.00
31761;BME280;18335;51.486;7.562;2023-02-01T06:45:31;100312.53;;;5.17;100.00
31761;BME280;18335;51.486;7.562;2023-02-01T06:47:58;100306.44;;;5.24;100.00
31761;BME280;18335;51.486;7.562;2023-02-01T06:50:26;100317.25;;;5.24;100.00
31761;BME280;18335;51.486;7.562;2023-02-01T06:52:52;100310.66;;;5.17;100.00
31761;BME280;18335;51.486;7.562;2023-02-01T06:55:19;100327.22;;;5.24;100.00
31761;BME280;18335;51.486;7.562;2023-02-01T06:57:46;100327.81;;;5.27;100.00
31761;BME280;18335;51.486;7.562;2023-02-01T07:00:15;100310.13;;;5.23;100.00
31761;BME280;18335;51.486;7.562;2023-02-01T07:02:41;100307.94;;;5.17;100.00
31761;BME280;18335;51.486;7.562;2023-02-01T07:05:08;100315.34;;;5.15;100.00
31761;BME280;18335;51.486;7.562;2023-02-01T07:07:35;100318.38;;;5.22;100.00
31761;BME280;18335;51.486;7.562;2023-02-01T07:10:02;100321.81;;;5.24;100.00
31761;BME280;18335;51.486;7.562;2023-02-01T07:12:29;100318.31;;;5.12;100.00
31761;BME280;18335;51.486;7.562;2023-02-01T07:14:56;100333.50;;;5.24;100.00
31761;BME280;18335;51.486;7.562;2023-02-01T07:17:24;100331.25;;;5.29;100.00
31761;BME280;18335;51.486;7.562;2023-02-01T07:19:51;100332.81;;;5.11;100.00
31761;BME280;18335;51.486;7.562;2023-02-01T07:22:18;100339.41;;;5.18;100.00
31761;BME280;18335;51.486;7.562;2023-02-01T07:24:44;100341.16;;;5.19;100.00
31761;BME280;18335;51.486;7.562;2023-02-01T07:27:11;100347.22;;;5.32;100.00
31761;BME280;18335;51.486;7.562;2023-02-01T07:29:38;100348.50;;;5.28;100.00
31761;BME280;18335;51.486;7.562;2023-02-01T07:32:05;100346.31;;;5.22;100.00
31761;BME280;18335;51.486;7.562;2023-02-01T07:34:33;100335.84;;;5.18;100.00
31761;BME280;18335;51.486;7.562;2023-02-01T07:37:00;100344.56;;;5.21;100.00
31761;BME280;18335;51.486;7.562;2023-02-01T07:39:26;100363.19;;;5.35;100.00
31761;BME280;18335;51.486;7.562;2023-02-01T07:41:57;100351.13;;;5.39;100.00
31761;BME280;18335;51.486;7.562;2023-02-01T07:44:24;100351.06;;;5.30;100.00
31761;BME280;18335;51.486;7.562;2023-02-01T07:46:50;100356.50;;;5.19;100.00
31761;BME280;18335;51.486;7.562;2023-02-01T07:49:17;100360.75;;;5.32;100.00
31761;BME280;18335;51.486;7.562;2023-02-01T07:51:45;100366.59;;;5.48;100.00
31761;BME280;18335;51.486;7.562;2023-02-01T07:54:12;100358.56;;;5.26;100.00
31761;BME280;18335;51.486;7.562;2023-02-01T07:56:38;100365.66;;;5.38;100.00
31761;BME280;18335;51.486;7.562;2023-02-01T07:59:05;100377.84;;;5.33;100.00
31761;BME280;18335;51.486;7.562;2023-02-01T08:01:33;100370.97;;;5.29;100.00
31761;BME280;18335;51.486;7.562;2023-02-01T08:04:00;100358.53;;;5.37;100.00
31761;BME280;18335;51.486;7.562;2023-02-01T08:06:28;100364.66;;;5.39;100.00
31761;BME280;18335;51.486;7.562;2023-02-01T08:08:58;100370.84;;;5.30;100.00
31761;BME280;18335;51.486;7.562;2023-02-01T08:11:25;100369.31;;;5.48;100.00
31761;BME280;18335;51.486;7.562;2023-02-01T08:13:53;100376.13;;;5.32;100.00
31761;BME280;18335;51.486;7.562;2023-02-01T08:16:20;100383.56;;;5.50;100.00
31761;BME280;18335;51.486;7.562;2023-02-01T08:18:47;100359.97;;;5.41;100.00
31761;BME280;18335;51.486;7.562;2023-02-01T08:21:15;100373.84;;;5.48;100.00
31761;BME280;18335;51.486;7.562;2023-02-01T08:23:43;100364.41;;;5.42;100.00
31761;BME280;18335;51.486;7.562;2023-02-01T08:26:13;100372.97;;;5.47;100.00
31761;BME280;18335;51.486;7.562;2023-02-01T08:28:41;100394.91;;;5.44;100.00
31761;BME280;18335;51.486;7.562;2023-02-01T08:31:10;100377.69;;;5.45;100.00
31761;BME280;18335;51.486;7.562;2023-02-01T08:33:37;100385.28;;;5.51;100.00
31761;BME280;18335;51.486;7.562;2023-02-01T08:36:07;100385.22;;;5.63;100.00
31761;BME280;18335;51.486;7.562;2023-02-01T08:38:35;100387.66;;;5.66;100.00
31761;BME280;18335;51.486;7.562;2023-02-01T08:41:05;100388.00;;;5.72;100.00
31761;BME280;18335;51.486;7.562;2023-02-01T08:43:34;100390.03;;;5.59;100.00
31761;BME280;18335;51.486;7.562;2023-02-01T08:46:01;100379.75;;;5.94;100.00
31761;BME280;18335;51.486;7.562;2023-02-01T08:48:28;100390.38;;;5.66;100.00
31761;BME280;18335;51.486;7.562;2023-02-01T08:50:54;100394.31;;;5.62;100.00
31761;BME280;18335;51.486;7.562;2023-02-01T08:53:21;100394.81;;;5.67;100.00
31761;BME280;18335;51.486;7.562;2023-02-01T08:55:48;100393.75;;;5.79;100.00
31761;BME280;18335;51.486;7.562;2023-02-01T08:58:15;100407.75;;;5.84;100.00
31761;BME280;18335;51.486;7.562;2023-02-01T09:00:43;100394.69;;;5.89;100.00
31761;BME280;18335;51.486;7.562;2023-02-01T09:03:11;100383.16;;;5.87;100.00
31761;BME280;18335;51.486;7.562;2023-02-01T09:05:38;100382.66;;;5.82;100.00
31761;BME280;18335;51.486;7.562;2023-02-01T09:08:05;100392.47;;;5.83;100.00
31761;BME280;18335;51.486;7.562;2023-02-01T09:10:33;100396.25;;;5.71;100.00
31761;BME280;18335;51.486;7.562;2023-02-01T09:12:59;100385.75;;;5.77;100.00
31761;BME280;18335;51.486;7.562;2023-02-01T09:15:26;100390.56;;;5.74;100.00
31761;BME280;18335;51.486;7.562;2023-02-01T09:17:54;100380.59;;;5.74;100.00
31761;BME280;18335;51.486;7.562;2023-02-01T09:20:21;100381.72;;;5.72;100.00
31761;BME280;18335;51.486;7.562;2023-02-01T09:22:50;100374.91;;;5.77;100.00
31761;BME280;18335;51.486;7.562;2023-02-01T09:25:17;100386.47;;;5.90;100.00
31761;BME280;18335;51.486;7.562;2023-02-01T09:27:44;100381.53;;;5.84;100.00
31761;BME280;18335;51.486;7.562;2023-02-01T09:30:11;100360.41;;;5.78;100.00
31761;BME280;18335;51.486;7.562;2023-02-01T09:32:38;100359.97;;;5.94;100.00
31761;BME280;18335;51.486;7.562;2023-02-01T09:35:07;100365.19;;;5.86;100.00
31761;BME280;18335;51.486;7.562;2023-02-01T09:37:33;100360.00;;;6.03;100.00
31761;BME280;18335;51.486;7.562;2023-02-01T09:40:12;100369.50;;;5.88;100.00
31761;BME280;18335;51.486;7.562;2023-02-01T09:42:49;100370.06;;;5.92;100.00
31761;BME280;18335;51.486;7.562;2023-02-01T09:45:23;100376.50;;;5.91;100.00
31761;BME280;18335;51.486;7.562;2023-02-01T09:47:53;100391.00;;;5.90;100.00
31761;BME280;18335;51.486;7.562;2023-02-01T09:50:34;100383.13;;;6.07;100.00
31761;BME280;18335;51.486;7.562;2023-02-01T09:53:05;100390.63;;;5.83;100.00
31761;BME280;18335;51.486;7.562;2023-02-01T09:55:36;100379.97;;;5.82;100.00
31761;BME280;18335;51.486;7.562;2023-02-01T09:58:07;100368.22;;;5.92;100.00
31761;BME280;18335;51.486;7.562;2023-02-01T10:00:38;100371.72;;;6.04;100.00
31761;BME280;18335;51.486;7.562;2023-02-01T10:03:11;100378.31;;;6.11;100.00
31761;BME280;18335;51.486;7.562;2023-02-01T10:05:54;100384.53;;;6.02;100.00
31761;BME280;18335;51.486;7.562;2023-02-01T10:08:32;100374.16;;;6.07;100.00
31761;BME280;18335;51.486;7.562;2023-02-01T10:11:08;100377.88;;;6.06;100.00
31761;BME280;18335;51.486;7.562;2023-02-01T10:13:48;100378.84;;;6.05;100.00
31761;BME280;18335;51.486;7.562;2023-02-01T10:16:26;100371.84;;;6.02;100.00
31761;BME280;18335;51.486;7.562;2023-02-01T10:19:10;100371.31;;;6.08;100.00
31761;BME280;18335;51.486;7.562;2023-02-01T10:21:51;100376.41;;;6.02;100.00
31761;BME280;18335;51.486;7.562;2023-02-01T10:24:28;100366.88;;;6.07;100.00
31761;BME280;18335;51.486;7.562;2023-02-01T10:27:02;100370.56;;;6.06;100.00
31761;BME280;18335;51.486;7.562;2023-02-01T10:29:37;100366.03;;;6.07;100.00
31761;BME280;18335;51.486;7.562;2023-02-01T10:32:12;100359.47;;;6.09;100.00
31761;BME280;18335;51.486;7.562;2023-02-01T10:34:41;100360.00;;;6.24;100.00
31761;BME280;18335;51.486;7.562;2023-02-01T10:37:17;100364.28;;;6.27;100.00
31761;BME280;18335;51.486;7.562;2023-02-01T10:39:47;100377.28;;;6.02;100.00
31761;BME280;18335;51.486;7.562;2023-02-01T10:42:15;100365.38;;;6.15;100.00
31761;BME280;18335;51.486;7.562;2023-02-01T10:44:44;100372.63;;;6.14;100.00
31761;BME280;18335;51.486;7.562;2023-02-01T10:47:13;100365.75;;;6.10;100.00
31761;BME280;18335;51.486;7.562;2023-02-01T10:49:43;100369.22;;;6.12;100.00
31761;BME280;18335;51.486;7.562;2023-02-01T10:52:17;100358.63;;;6.09;100.00
31761;BME280;18335;51.486;7.562;2023-02-01T10:54:46;100359.22;;;6.12;100.00
31761;BME280;18335;51.486;7.562;2023-02-01T10:57:21;100356.75;;;6.00;100.00
31761;BME280;18335;51.486;7.562;2023-02-01T10:59:49;100351.75;;;6.05;100.00
31761;BME280;18335;51.486;7.562;2023-02-01T11:02:20;100347.47;;;6.02;100.00
31761;BME280;18335;51.486;7.562;2023-02-01T11:04:58;100353.00;;;6.01;100.00
31761;BME280;18335;51.486;7.562;2023-02-01T11:07:28;100353.44;;;5.96;100.00
31761;BME280;18335;51.486;7.562;2023-02-01T11:09:55;100333.34;;;5.99;100.00
31761;BME280;18335;51.486;7.562;2023-02-01T11:12:28;100343.47;;;5.97;100.00
31761;BME280;18335;51.486;7.562;2023-02-01T11:15:04;100347.94;;;6.07;100.00
31761;BME280;18335;51.486;7.562;2023-02-01T11:17:40;100350.78;;;6.06;100.00
31761;BME280;18335;51.486;7.562;2023-02-01T11:20:14;100344.88;;;6.01;100.00
31761;BME280;18335;51.486;7.562;2023-02-01T11:22:47;100339.22;;;6.04;100.00
31761;BME280;18335;51.486;7.562;2023-02-01T11:25:16;100337.59;;;6.22;100.00
31761;BME280;18335;51.486;7.562;2023-02-01T11:27:44;100313.03;;;6.14;100.00
31761;BME280;18335;51.486;7.562;2023-02-01T11:30:16;100334.25;;;6.09;100.00
31761;BME280;18335;51.486;7.562;2023-02-01T11:32:45;100327.50;;;6.03;100.00
31761;BME280;18335;51.486;7.562;2023-02-01T11:35:17;100306.03;;;6.11;100.00
31761;BME280;18335;51.486;7.562;2023-02-01T11:37:52;100294.19;;;6.12;100.00
31761;BME280;18335;51.486;7.562;2023-02-01T11:40:26;100297.41;;;6.27;100.00
31761;BME280;18335;51.486;7.562;2023-02-01T11:42:55;100294.25;;;6.22;100.00
31761;BME280;18335;51.486;7.562;2023-02-01T11:45:25;100288.09;;;6.20;100.00
31761;BME280;18335;51.486;7.562;2023-02-01T11:47:53;100282.53;;;6.22;100.00
31761;BME280;18335;51.486;7.562;2023-02-01T11:50:27;100287.13;;;6.21;100.00
31761;BME280;18335;51.486;7.562;2023-02-01T11:53:20;100266.47;;;6.39;100.00
31761;BME280;18335;51.486;7.562;2023-02-01T11:55:55;100249.22;;;6.40;100.00
31761;BME280;18335;51.486;7.562;2023-02-01T11:58:42;100255.47;;;6.31;100.00
31761;BME280;18335;51.486;7.562;2023-02-01T12:01:49;100247.69;;;6.47;100.00
31761;BME280;18335;51.486;7.562;2023-02-01T12:04:42;100241.94;;;6.31;100.00
31761;BME280;18335;51.486;7.562;2023-02-01T12:07:17;100242.38;;;6.36;100.00
31761;BME280;18335;51.486;7.562;2023-02-01T12:09:56;100238.63;;;6.28;100.00
31761;BME280;18335;51.486;7.562;2023-02-01T12:12:36;100250.84;;;6.12;100.00
31761;BME280;18335;51.486;7.562;2023-02-01T12:15:19;100246.84;;;6.07;100.00
31761;BME280;18335;51.486;7.562;2023-02-01T12:18:06;100237.66;;;5.89;100.00
31761;BME280;18335;51.486;7.562;2023-02-01T12:20:56;100255.19;;;5.74;100.00
31761;BME280;18335;51.486;7.562;2023-02-01T12:23:37;100249.78;;;5.74;100.00
31761;BME280;18335;51.486;7.562;2023-02-01T12:26:26;100266.31;;;5.71;100.00
31761;BME280;18335;51.486;7.562;2023-02-01T12:29:15;100233.19;;;5.57;100.00
31761;BME280;18335;51.486;7.562;2023-02-01T12:31:58;100240.91;;;5.62;100.00
31761;BME280;18335;51.486;7.562;2023-02-01T12:34:41;100237.81;;;5.67;100.00
31761;BME280;18335;51.486;7.562;2023-02-01T12:37:29;100231.19;;;5.59;100.00
31761;BME280;18335;51.486;7.562;2023-02-01T12:40:15;100222.72;;;5.74;100.00
31761;BME280;18335;51.486;7.562;2023-02-01T12:42:55;100216.75;;;5.70;100.00
31761;BME280;18335;51.486;7.562;2023-02-01T12:45:30;100213.03;;;5.71;100.00
31761;BME280;18335;51.486;7.562;2023-02-01T12:48:23;100209.19;;;5.74;100.00
31761;BME280;18335;51.486;7.562;2023-02-01T12:50:54;100195.78;;;5.93;100.00
31761;BME280;18335;51.486;7.562;2023-02-01T12:53:27;100189.50;;;5.92;100.00
31761;BME280;18335;51.486;7.562;2023-02-01T12:56:00;100198.50;;;6.02;100.00
31761;BME280;18335;51.486;7.562;2023-02-01T12:58:32;100193.66;;;5.96;100.00
31761;BME280;18335;51.486;7.562;2023-02-01T13:01:06;100186.47;;;5.86;100.00
31761;BME280;18335;51.486;7.562;2023-02-01T13:03:40;100194.78;;;6.03;100.00
31761;BME280;18335;51.486;7.562;2023-02-01T13:06:12;100191.81;;;5.97;100.00
31761;BME280;18335;51.486;7.562;2023-02-01T13:08:45;100214.06;;;6.10;100.00
31761;BME280;18335;51.486;7.562;2023-02-01T13:11:18;100190.84;;;6.17;100.00